createdAt,value
2023-03-22T00:00:29.156Z,11.94
2023-03-22T00:03:52.704Z,11.92
2023-03-22T00:06:55.598Z,11.92
2023-03-22T00:09:58.523Z,11.91
2023-03-22T00:13:01.367Z,11.92
2023-03-22T00:16:05.599Z,11.90
2023-03-22T00:19:08.446Z,11.90
2023-03-22T00:22:11.879Z,11.90
2023-03-22T00:25:14.668Z,11.85
2023-03-22T00:28:18.370Z,11.84
2023-03-22T00:31:21.209Z,11.83
2023-03-22T00:34:24.026Z,11.80
2023-03-22T00:37:27.887Z,11.80
2023-03-22T00:40:30.934Z,11.78
2023-03-22T00:43:33.930Z,11.75
2023-03-22T00:46:37.527Z,11.71
2023-03-22T00:49:40.400Z,11.66
2023-03-22T00:52:43.615Z,11.62
2023-03-22T00:55:46.662Z,11.62
2023-03-22T00:58:49.711Z,11.60
2023-03-22T01:01:52.672Z,11.58
2023-03-22T01:04:55.909Z,11.56
2023-03-22T01:08:02.665Z,11.53
2023-03-22T01:11:07.156Z,11.45
2023-03-22T01:14:10.059Z,11.41
2023-03-22T01:17:13.352Z,11.39
2023-03-22T01:20:16.445Z,11.37
2023-03-22T01:23:19.305Z,11.32
2023-03-22T01:26:22.300Z,11.30
2023-03-22T01:29:25.635Z,11.29
2023-03-22T01:32:28.308Z,11.32
2023-03-22T01:35:33.246Z,11.31
2023-03-22T01:38:36.501Z,11.28
2023-03-22T01:41:39.413Z,11.31
2023-03-22T01:44:47.547Z,11.28
2023-03-22T01:47:56.332Z,11.25
2023-03-22T01:51:04.499Z,11.22
2023-03-22T01:54:13.077Z,11.18
2023-03-22T01:57:16.583Z,11.15
2023-03-22T02:00:20.668Z,11.12
2023-03-22T02:03:38.953Z,11.14
2023-03-22T02:06:42.623Z,11.12
2023-03-22T02:09:47.143Z,11.10
2023-03-22T02:13:22.241Z,11.09
2023-03-22T02:16:34.862Z,11.06
2023-03-22T02:19:47.233Z,11.10
2023-03-22T02:23:13.799Z,11.08
2023-03-22T02:26:25.091Z,11.02
2023-03-22T02:30:07.173Z,10.98
2023-03-22T02:33:33.856Z,10.96
2023-03-22T02:37:18.200Z,10.92
2023-03-22T02:40:35.742Z,10.87
2023-03-22T02:44:03.204Z,10.90
2023-03-22T02:47:14.247Z,10.89
2023-03-22T02:50:25.042Z,10.90
2023-03-22T02:53:38.198Z,10.91
2023-03-22T02:56:48.138Z,10.87
2023-03-22T02:59:53.241Z,10.83
2023-03-22T03:03:02.019Z,10.80
2023-03-22T03:06:10.620Z,10.85
2023-03-22T03:09:18.137Z,10.90
2023-03-22T03:12:24.523Z,10.97
2023-03-22T03:15:28.228Z,10.89
2023-03-22T03:18:40.724Z,10.89
2023-03-22T03:22:04.583Z,10.89
2023-03-22T03:25:21.103Z,10.89
2023-03-22T03:28:49.819Z,10.89
2023-03-22T03:32:07.456Z,10.91
2023-03-22T03:35:22.424Z,10.90
2023-03-22T03:38:29.772Z,10.88
2023-03-22T03:41:35.964Z,10.94
2023-03-22T03:44:39.168Z,10.89
2023-03-22T03:47:44.626Z,10.85
2023-03-22T03:50:50.972Z,10.86
2023-03-22T03:53:54.443Z,10.91
2023-03-22T03:56:57.073Z,10.81
2023-03-22T04:00:00.456Z,10.77
2023-03-22T04:03:06.349Z,10.75
2023-03-22T04:06:10.024Z,10.68
2023-03-22T04:09:13.063Z,10.75
2023-03-22T04:12:16.553Z,10.64
2023-03-22T04:15:20.533Z,10.61
2023-03-22T04:18:24.817Z,10.56
2023-03-22T04:21:27.615Z,10.58
2023-03-22T04:24:31.265Z,10.53
2023-03-22T04:27:33.777Z,10.50
2023-03-22T04:30:37.478Z,10.46
2023-03-22T04:33:46.846Z,10.43
2023-03-22T04:36:51.045Z,10.44
2023-03-22T04:39:54.260Z,10.41
2023-03-22T04:42:58.941Z,10.36
2023-03-22T04:46:02.203Z,10.33
2023-03-22T04:49:07.784Z,10.30
2023-03-22T04:52:11.182Z,10.30
2023-03-22T04:55:14.565Z,10.31
2023-03-22T04:58:22.109Z,10.34
2023-03-22T05:01:25.756Z,10.36
2023-03-22T05:04:31.570Z,10.36
2023-03-22T05:07:35.383Z,10.41
2023-03-22T05:10:42.124Z,10.44
2023-03-22T05:13:45.419Z,10.50
2023-03-22T05:16:50.525Z,10.46
2023-03-22T05:19:54.031Z,10.47
2023-03-22T05:22:57.075Z,10.47
2023-03-22T05:26:01.952Z,10.51
2023-03-22T05:29:05.283Z,10.59
2023-03-22T05:32:11.561Z,10.64
2023-03-22T05:35:15.422Z,10.68
2023-03-22T05:38:18.967Z,10.77
2023-03-22T05:41:22.698Z,10.74
2023-03-22T05:44:29.180Z,10.77
2023-03-22T05:47:32.551Z,10.87
2023-03-22T05:50:35.823Z,10.94
2023-03-22T05:53:38.545Z,11.02
2023-03-22T05:56:41.573Z,11.08
2023-03-22T05:59:44.092Z,11.19
2023-03-22T06:02:49.718Z,11.26
2023-03-22T06:05:54.875Z,11.35
2023-03-22T06:09:10.657Z,11.41
2023-03-22T06:12:22.677Z,11.49
2023-03-22T06:15:25.841Z,11.53
2023-03-22T06:18:31.110Z,11.62
2023-03-22T06:21:34.272Z,11.73
2023-03-22T06:24:37.136Z,11.92
2023-03-22T06:27:40.558Z,12.17
2023-03-22T06:30:43.605Z,12.34
2023-03-22T06:33:48.110Z,12.55
2023-03-22T06:36:51.507Z,12.77
2023-03-22T06:39:54.893Z,12.93
2023-03-22T06:42:57.801Z,13.19
2023-03-22T06:46:01.090Z,13.41
2023-03-22T06:49:08.155Z,13.55
2023-03-22T06:52:11.048Z,13.73
2023-03-22T06:55:14.050Z,13.98
2023-03-22T06:58:17.031Z,14.17
2023-03-22T07:01:20.074Z,14.31
2023-03-22T07:04:24.160Z,14.44
2023-03-22T07:07:27.466Z,14.50
2023-03-22T07:10:30.684Z,14.58
2023-03-22T07:13:33.943Z,14.57
2023-03-22T07:16:37.938Z,14.51
2023-03-22T07:19:42.829Z,14.44
2023-03-22T07:22:47.045Z,14.49
2023-03-22T07:25:50.308Z,14.52
2023-03-22T07:28:54.030Z,14.60
2023-03-22T07:31:57.308Z,14.70
2023-03-22T07:35:00.732Z,14.88
2023-03-22T07:38:05.677Z,15.14
2023-03-22T07:41:09.334Z,15.38
2023-03-22T07:44:18.087Z,15.48
2023-03-22T07:47:37.827Z,15.56
2023-03-22T07:50:43.077Z,15.65
2023-03-22T07:53:46.069Z,16.04
2023-03-22T07:56:48.966Z,16.21
2023-03-22T07:59:52.113Z,16.29
2023-03-22T08:02:55.862Z,16.57
2023-03-22T08:06:02.632Z,16.83
2023-03-22T08:09:05.291Z,16.64
2023-03-22T08:12:10.953Z,16.59
2023-03-22T08:15:14.338Z,16.59
2023-03-22T08:18:18.004Z,16.66
2023-03-22T08:21:20.975Z,16.91
2023-03-22T08:24:26.536Z,17.00
2023-03-22T08:27:31.451Z,17.16
2023-03-22T08:30:35.389Z,17.22
2023-03-22T08:33:39.131Z,16.72
2023-03-22T08:36:42.378Z,16.47
2023-03-22T08:39:45.307Z,16.55
2023-03-22T08:42:51.046Z,16.66
2023-03-22T08:45:53.790Z,16.60
2023-03-22T08:49:00.438Z,16.24
2023-03-22T08:52:04.358Z,16.05
2023-03-22T08:55:09.640Z,16.01
2023-03-22T08:58:20.098Z,16.07
2023-03-22T09:01:26.633Z,16.24
2023-03-22T09:04:29.362Z,16.08
2023-03-22T09:07:35.652Z,16.01
2023-03-22T09:10:39.908Z,15.84
2023-03-22T09:13:43.375Z,16.14
2023-03-22T09:16:47.134Z,16.49
2023-03-22T09:19:57.669Z,16.54
2023-03-22T09:23:07.000Z,16.89
2023-03-22T09:26:11.126Z,16.97
2023-03-22T09:29:14.006Z,16.97
2023-03-22T09:32:17.607Z,17.02
2023-03-22T09:35:23.068Z,16.96
2023-03-22T09:38:27.315Z,16.88
2023-03-22T09:41:40.262Z,17.06
2023-03-22T09:44:46.366Z,17.07
2023-03-22T09:47:54.455Z,17.07
2023-03-22T09:51:00.527Z,17.01
2023-03-22T09:54:03.565Z,16.89
2023-03-22T09:57:26.177Z,17.07
2023-03-22T10:00:41.222Z,17.06
2023-03-22T10:04:15.882Z,17.02
2023-03-22T10:07:30.572Z,16.92
2023-03-22T10:10:33.805Z,16.69
2023-03-22T10:13:54.611Z,16.64
2023-03-22T10:17:00.655Z,16.55
2023-03-22T10:20:23.959Z,16.45
2023-03-22T10:23:40.342Z,16.29
2023-03-22T10:26:46.842Z,16.18
2023-03-22T10:30:07.243Z,16.21
2023-03-22T10:33:21.358Z,16.18
2023-03-22T10:36:31.123Z,16.24
2023-03-22T10:39:40.117Z,16.20
2023-03-22T10:42:49.650Z,15.89
2023-03-22T10:45:56.949Z,15.74
2023-03-22T10:49:01.591Z,15.52
2023-03-22T10:52:31.241Z,15.28
2023-03-22T10:55:40.562Z,15.25
2023-03-22T10:58:43.283Z,15.14
2023-03-22T11:01:46.361Z,15.01
2023-03-22T11:04:54.467Z,14.99
2023-03-22T11:07:59.049Z,14.86
2023-03-22T11:11:07.702Z,14.69
2023-03-22T11:14:16.006Z,14.71
2023-03-22T11:17:25.900Z,14.72
2023-03-22T11:20:37.448Z,14.53
2023-03-22T11:23:46.402Z,14.34
2023-03-22T11:27:06.805Z,14.29
2023-03-22T11:30:20.239Z,14.27
2023-03-22T11:33:25.954Z,14.40
2023-03-22T11:36:29.372Z,14.33
2023-03-22T11:39:32.624Z,14.39
2023-03-22T11:42:35.879Z,14.56
2023-03-22T11:45:42.582Z,14.56
2023-03-22T11:48:51.619Z,14.43
2023-03-22T11:51:56.378Z,14.44
2023-03-22T11:55:01.587Z,14.46
2023-03-22T11:58:05.858Z,14.52
2023-03-22T12:01:18.684Z,14.75
2023-03-22T12:04:27.092Z,14.70
2023-03-22T12:07:32.964Z,14.85
2023-03-22T12:10:42.261Z,14.84
2023-03-22T12:13:57.571Z,15.06
2023-03-22T12:17:29.600Z,15.35
2023-03-22T12:20:44.205Z,15.86
2023-03-22T12:23:47.428Z,16.38
2023-03-22T12:26:52.936Z,16.76
2023-03-22T12:30:05.126Z,17.12
2023-03-22T12:33:32.975Z,17.44
2023-03-22T12:36:53.340Z,17.55
2023-03-22T12:40:01.086Z,17.61
2023-03-22T12:43:27.867Z,17.73
2023-03-22T12:46:44.159Z,17.79
2023-03-22T12:50:05.790Z,17.51
2023-03-22T12:53:13.686Z,17.40
2023-03-22T12:56:19.994Z,17.35
2023-03-22T12:59:27.594Z,17.22
2023-03-22T13:02:35.372Z,17.35
2023-03-22T13:05:38.292Z,17.41
2023-03-22T13:09:16.841Z,17.44
2023-03-22T13:12:19.403Z,17.50
2023-03-22T13:15:41.229Z,17.62
2023-03-22T13:18:45.263Z,17.95
2023-03-22T13:21:49.871Z,18.19
2023-03-22T13:25:05.917Z,18.46
2023-03-22T13:28:26.373Z,18.64
2023-03-22T13:31:45.390Z,18.89
2023-03-22T13:34:52.572Z,19.12
2023-03-22T13:38:03.067Z,19.01
2023-03-22T13:41:06.502Z,18.93
2023-03-22T13:44:36.121Z,18.83
2023-03-22T13:47:47.275Z,18.86
2023-03-22T13:50:50.193Z,18.81
2023-03-22T13:54:17.930Z,18.91
2023-03-22T13:57:59.008Z,18.92
2023-03-22T14:01:16.328Z,18.70
2023-03-22T14:04:30.281Z,18.63
2023-03-22T14:07:58.166Z,18.48
2023-03-22T14:11:38.178Z,18.36
2023-03-22T14:14:47.024Z,18.12
2023-03-22T14:17:56.476Z,17.92
2023-03-22T14:21:15.685Z,17.86
